sensor_id;sensor_type;location;lat;lon;timestamp;pressure;altitude;pressure_sealevel;temperature;humidity
46506;BME280;32220;49.808;9.968;2024-03-23T00:54:40;98063.84;;;11.18;64.61
46506;BME280;32220;49.808;9.968;2024-03-23T00:57:07;98051.66;;;11.04;64.93
46506;BME280;32220;49.808;9.968;2024-03-23T00:59:33;98062.03;;;11.07;65.53
46506;BME280;32220;49.808;9.968;2024-03-23T01:02:01;98053.56;;;11.02;65.40
46506;BME280;32220;49.808;9.968;2024-03-23T01:04:27;98032.25;;;10.93;65.62
46506;BME280;32220;49.808;9.968;2024-03-23T01:06:55;98028.31;;;10.98;66.71
46506;BME280;32220;49.808;9.968;2024-03-23T01:09:21;98022.50;;;10.93;66.49
46506;BME280;32220;49.808;9.968;2024-03-23T01:11:50;98027.06;;;10.91;66.34
46506;BME280;32220;49.808;9.968;2024-03-23T01:14:16;98002.50;;;10.78;66.68
46506;BME280;32220;49.808;9.968;2024-03-23T01:16:44;98010.44;;;10.89;67.78
46506;BME280;32220;49.808;9.968;2024-03-23T01:19:10;98007.69;;;10.91;67.56
46506;BME280;32220;49.808;9.968;2024-03-23T01:21:38;98006.13;;;10.88;66.86
46506;BME280;32220;49.808;9.968;2024-03-23T01:24:04;98006.72;;;10.80;67.00
46506;BME280;32220;49.808;9.968;2024-03-23T01:26:32;97997.56;;;10.73;66.74
46506;BME280;32220;49.808;9.968;2024-03-23T01:29:00;97998.63;;;10.71;66.75
46506;BME280;32220;49.808;9.968;2024-03-23T01:31:28;97988.16;;;10.69;66.52
46506;BME280;32220;49.808;9.968;2024-03-23T01:33:54;97982.25;;;10.66;66.70
46506;BME280;32220;49.808;9.968;2024-03-23T01:36:21;97973.84;;;10.61;66.26
46506;BME280;32220;49.808;9.968;2024-03-23T01:38:48;97979.47;;;10.56;66.06
46506;BME280;32220;49.808;9.968;2024-03-23T01:41:15;97968.53;;;10.50;66.31
46506;BME280;32220;49.808;9.968;2024-03-23T01:43:42;97970.66;;;10.44;66.48
46506;BME280;32220;49.808;9.968;2024-03-23T01:46:11;97962.34;;;10.38;66.48
46506;BME280;32220;49.808;9.968;2024-03-23T01:48:37;97948.72;;;10.31;66.29
46506;BME280;32220;49.808;9.968;2024-03-23T01:51:05;97956.44;;;10.34;66.27
46506;BME280;32220;49.808;9.968;2024-03-23T01:53:31;97941.00;;;10.28;66.06
46506;BME280;32220;49.808;9.968;2024-03-23T01:55:59;97954.16;;;10.41;66.30
46506;BME280;32220;49.808;9.968;2024-03-23T01:58:25;97939.84;;;10.43;66.45
46506;BME280;32220;49.808;9.968;2024-03-23T02:00:53;97935.06;;;10.49;66.31
46506;BME280;32220;49.808;9.968;2024-03-23T02:03:24;97933.00;;;10.52;66.10
46506;BME280;32220;49.808;9.968;2024-03-23T02:05:53;97930.97;;;10.56;66.22
46506;BME280;32220;49.808;9.968;2024-03-23T02:08:20;97928.72;;;10.62;66.11
46506;BME280;32220;49.808;9.968;2024-03-23T02:10:48;97929.06;;;10.69;65.86
46506;BME280;32220;49.808;9.968;2024-03-23T02:13:15;97919.66;;;10.76;66.53
46506;BME280;32220;49.808;9.968;2024-03-23T02:15:42;97905.63;;;10.75;67.25
46506;BME280;32220;49.808;9.968;2024-03-23T02:18:09;97916.19;;;10.87;66.98
46506;BME280;32220;49.808;9.968;2024-03-23T02:20:38;97883.44;;;10.76;68.63
46506;BME280;32220;49.808;9.968;2024-03-23T02:23:06;97893.66;;;10.92;67.77
46506;BME280;32220;49.808;9.968;2024-03-23T02:25:33;97878.38;;;10.96;68.10
46506;BME280;32220;49.808;9.968;2024-03-23T02:28:00;97873.69;;;10.99;68.27
46506;BME280;32220;49.808;9.968;2024-03-23T02:30:27;97868.13;;;11.02;68.17
46506;BME280;32220;49.808;9.968;2024-03-23T02:32:53;97865.47;;;11.02;67.97
46506;BME280;32220;49.808;9.968;2024-03-23T02:35:21;97865.34;;;11.04;68.56
46506;BME280;32220;49.808;9.968;2024-03-23T02:37:47;97860.66;;;11.07;68.14
46506;BME280;32220;49.808;9.968;2024-03-23T02:40:17;97851.50;;;11.11;68.07
46506;BME280;32220;49.808;9.968;2024-03-23T02:42:43;97838.72;;;11.16;68.81
46506;BME280;32220;49.808;9.968;2024-03-23T02:45:11;97841.00;;;11.21;68.73
46506;BME280;32220;49.808;9.968;2024-03-23T02:47:38;97846.41;;;11.31;68.64
46506;BME280;32220;49.808;9.968;2024-03-23T02:50:06;97842.00;;;11.41;68.44
46506;BME280;32220;49.808;9.968;2024-03-23T02:52:33;97841.25;;;11.50;68.56
46506;BME280;32220;49.808;9.968;2024-03-23T02:55:00;97830.88;;;11.58;68.76
46506;BME280;32220;49.808;9.968;2024-03-23T02:57:29;97824.31;;;11.62;68.24
46506;BME280;32220;49.808;9.968;2024-03-23T02:59:56;97823.38;;;11.63;67.78
46506;BME280;32220;49.808;9.968;2024-03-23T03:02:23;97820.88;;;11.62;67.65
46506;BME280;32220;49.808;9.968;2024-03-23T03:04:50;97812.31;;;11.58;68.49
46506;BME280;32220;49.808;9.968;2024-03-23T03:07:17;97808.69;;;11.59;69.17
46506;BME280;32220;49.808;9.968;2024-03-23T03:09:44;97812.75;;;11.63;68.87
46506;BME280;32220;49.808;9.968;2024-03-23T03:12:10;97805.16;;;11.70;69.90
46506;BME280;32220;49.808;9.968;2024-03-23T03:14:39;97803.81;;;11.75;69.67
46506;BME280;32220;49.808;9.968;2024-03-23T03:17:06;97796.31;;;11.80;68.93
46506;BME280;32220;49.808;9.968;2024-03-23T03:19:33;97786.16;;;11.85;69.22
46506;BME280;32220;49.808;9.968;2024-03-23T03:22:00;97776.53;;;11.84;69.11
46506;BME280;32220;49.808;9.968;2024-03-23T03:24:27;97765.91;;;11.84;69.43
46506;BME280;32220;49.808;9.968;2024-03-23T03:26:54;97776.53;;;11.84;69.08
46506;BME280;32220;49.808;9.968;2024-03-23T03:29:21;97759.69;;;11.74;69.17
46506;BME280;32220;49.808;9.968;2024-03-23T03:31:49;97781.84;;;11.84;69.60
46506;BME280;32220;49.808;9.968;2024-03-23T03:34:17;97759.06;;;11.82;70.37
46506;BME280;32220;49.808;9.968;2024-03-23T03:36:43;97760.63;;;11.84;70.28
46506;BME280;32220;49.808;9.968;2024-03-23T03:39:10;97767.78;;;11.94;71.10
46506;BME280;32220;49.808;9.968;2024-03-23T03:41:38;97770.72;;;12.00;70.75
46506;BME280;32220;49.808;9.968;2024-03-23T03:44:06;97766.59;;;12.07;70.71
46506;BME280;32220;49.808;9.968;2024-03-23T03:46:32;97772.22;;;12.14;70.51
46506;BME280;32220;49.808;9.968;2024-03-23T03:49:01;97774.34;;;12.20;70.11
46506;BME280;32220;49.808;9.968;2024-03-23T03:51:28;97765.28;;;12.22;70.38
46506;BME280;32220;49.808;9.968;2024-03-23T03:53:55;97697.97;;;11.93;71.15
46506;BME280;32220;49.808;9.968;2024-03-23T03:56:22;97736.19;;;12.11;71.00
46506;BME280;32220;49.808;9.968;2024-03-23T03:58:49;97738.75;;;12.22;70.52
46506;BME280;32220;49.808;9.968;2024-03-23T04:01:16;97755.00;;;12.39;70.61
46506;BME280;32220;49.808;9.968;2024-03-23T04:03:43;97756.41;;;12.43;70.73
46506;BME280;32220;49.808;9.968;2024-03-23T04:06:11;97748.31;;;12.44;70.62
46506;BME280;32220;49.808;9.968;2024-03-23T04:08:38;97730.97;;;12.40;72.93
46506;BME280;32220;49.808;9.968;2024-03-23T04:11:05;97731.81;;;12.41;73.00
46506;BME280;32220;49.808;9.968;2024-03-23T04:13:32;97723.25;;;12.37;74.47
46506;BME280;32220;49.808;9.968;2024-03-23T04:16:00;97714.31;;;12.29;75.88
46506;BME280;32220;49.808;9.968;2024-03-23T04:18:27;97721.16;;;12.31;75.98
46506;BME280;32220;49.808;9.968;2024-03-23T04:20:53;97718.91;;;12.27;77.06
46506;BME280;32220;49.808;9.968;2024-03-23T04:23:22;97660.69;;;11.95;78.22
46506;BME280;32220;49.808;9.968;2024-03-23T04:25:49;97703.91;;;12.16;78.18
46506;BME280;32220;49.808;9.968;2024-03-23T04:28:18;97684.72;;;12.03;78.25
46506;BME280;32220;49.808;9.968;2024-03-23T04:30:44;97694.94;;;12.07;79.44
46506;BME280;32220;49.808;9.968;2024-03-23T04:33:12;97684.44;;;11.96;78.23
46506;BME280;32220;49.808;9.968;2024-03-23T04:35:38;97696.50;;;12.10;77.85
46506;BME280;32220;49.808;9.968;2024-03-23T04:38:05;97691.88;;;12.12;77.88
46506;BME280;32220;49.808;9.968;2024-03-23T04:40:35;97687.88;;;12.17;77.56
46506;BME280;32220;49.808;9.968;2024-03-23T04:43:02;97681.19;;;12.23;78.31
46506;BME280;32220;49.808;9.968;2024-03-23T04:45:30;97678.66;;;12.21;78.40
46506;BME280;32220;49.808;9.968;2024-03-23T04:47:58;97682.59;;;12.27;78.88
46506;BME280;32220;49.808;9.968;2024-03-23T04:50:25;97690.28;;;12.30;78.38
46506;BME280;32220;49.808;9.968;2024-03-23T04:52:52;97691.00;;;12.32;78.30
46506;BME280;32220;49.808;9.968;2024-03-23T04:55:20;97691.56;;;12.36;78.07
46506;BME280;32220;49.808;9.968;2024-03-23T04:57:50;97683.75;;;12.34;77.61
46506;BME280;32220;49.808;9.968;2024-03-23T05:00:17;97677.59;;;12.34;77.49
46506;BME280;32220;49.808;9.968;2024-03-23T05:02:45;97673.97;;;12.35;77.20
46506;BME280;32220;49.808;9.968;2024-03-23T05:05:11;97682.91;;;12.34;76.99
46506;BME280;32220;49.808;9.968;2024-03-23T05:07:39;97671.16;;;12.36;76.99
46506;BME280;32220;49.808;9.968;2024-03-23T05:10:06;97658.28;;;12.32;76.54
46506;BME280;32220;49.808;9.968;2024-03-23T05:12:36;97655.50;;;12.33;75.97
46506;BME280;32220;49.808;9.968;2024-03-23T05:15:05;97675.09;;;12.42;76.19
46506;BME280;32220;49.808;9.968;2024-03-23T05:17:33;97677.03;;;12.40;75.73
46506;BME280;32220;49.808;9.968;2024-03-23T05:20:00;97665.56;;;12.39;75.42
46506;BME280;32220;49.808;9.968;2024-03-23T05:22:28;97643.63;;;12.37;76.24
46506;BME280;32220;49.808;9.968;2024-03-23T05:24:54;97654.94;;;12.39;75.63
46506;BME280;32220;49.808;9.968;2024-03-23T05:27:22;97662.66;;;12.42;74.97
46506;BME280;32220;49.808;9.968;2024-03-23T05:29:49;97659.41;;;12.39;74.99
46506;BME280;32220;49.808;9.968;2024-03-23T05:32:17;97674.94;;;12.43;75.34
46506;BME280;32220;49.808;9.968;2024-03-23T05:34:44;97686.53;;;12.42;75.93
46506;BME280;32220;49.808;9.968;2024-03-23T05:37:11;97679.28;;;12.44;76.23
46506;BME280;32220;49.808;9.968;2024-03-23T05:39:38;97686.69;;;12.50;75.80
46506;BME280;32220;49.808;9.968;2024-03-23T05:42:05;97673.72;;;12.57;75.94
46506;BME280;32220;49.808;9.968;2024-03-23T05:44:32;97681.00;;;12.65;75.82
46506;BME280;32220;49.808;9.968;2024-03-23T05:46:59;97682.00;;;12.73;75.48
46506;BME280;32220;49.808;9.968;2024-03-23T05:49:27;97669.97;;;12.79;74.73
46506;BME280;32220;49.808;9.968;2024-03-23T05:51:54;97672.91;;;12.76;74.74
46506;BME280;32220;49.808;9.968;2024-03-23T05:54:21;97689.97;;;12.83;72.88
46506;BME280;32220;49.808;9.968;2024-03-23T05:56:48;97706.19;;;12.89;71.75
46506;BME280;32220;49.808;9.968;2024-03-23T05:59:15;97710.84;;;12.97;71.27
46506;BME280;32220;49.808;9.968;2024-03-23T06:01:42;97722.72;;;13.03;69.85
46506;BME280;32220;49.808;9.968;2024-03-23T06:04:09;97726.63;;;12.99;68.96
46506;BME280;32220;49.808;9.968;2024-03-23T06:06:38;97748.72;;;12.99;68.90
46506;BME280;32220;49.808;9.968;2024-03-23T06:09:04;97740.59;;;13.01;69.21
46506;BME280;32220;49.808;9.968;2024-03-23T06:11:31;97736.84;;;12.93;69.30
46506;BME280;32220;49.808;9.968;2024-03-23T06:13:58;97718.63;;;12.89;70.29
46506;BME280;32220;49.808;9.968;2024-03-23T06:16:25;97721.69;;;12.75;72.42
46506;BME280;32220;49.808;9.968;2024-03-23T06:18:53;97723.06;;;12.59;74.01
46506;BME280;32220;49.808;9.968;2024-03-23T06:21:20;97736.31;;;12.50;74.86
46506;BME280;32220;49.808;9.968;2024-03-23T06:23:51;97722.53;;;12.26;76.50
46506;BME280;32220;49.808;9.968;2024-03-23T06:26:19;97748.81;;;12.29;77.52
46506;BME280;32220;49.808;9.968;2024-03-23T06:28:45;97754.78;;;12.21;77.34
46506;BME280;32220;49.808;9.968;2024-03-23T06:31:13;97741.31;;;12.13;78.07
46506;BME280;32220;49.808;9.968;2024-03-23T06:33:39;97746.84;;;12.21;78.19
46506;BME280;32220;49.808;9.968;2024-03-23T06:36:09;97765.22;;;12.13;76.90
46506;BME280;32220;49.808;9.968;2024-03-23T06:38:36;97776.63;;;12.04;76.61
46506;BME280;32220;49.808;9.968;2024-03-23T06:41:05;97781.28;;;12.11;76.27
46506;BME280;32220;49.808;9.968;2024-03-23T06:43:32;97797.41;;;12.19;75.98
46506;BME280;32220;49.808;9.968;2024-03-23T06:45:59;97815.56;;;12.24;75.59
46506;BME280;32220;49.808;9.968;2024-03-23T06:48:26;97819.22;;;12.23;75.28
46506;BME280;32220;49.808;9.968;2024-03-23T06:50:56;97812.53;;;12.29;74.96
46506;BME280;32220;49.808;9.968;2024-03-23T06:53:23;97819.25;;;12.33;75.16
46506;BME280;32220;49.808;9.968;2024-03-23T06:55:51;97809.75;;;12.30;74.14
46506;BME280;32220;49.808;9.968;2024-03-23T06:58:20;97819.84;;;12.36;74.18
46506;BME280;32220;49.808;9.968;2024-03-23T07:00:48;97853.19;;;12.29;72.35
46506;BME280;32220;49.808;9.968;2024-03-23T07:03:14;97843.78;;;12.25;71.91
46506;BME280;32220;49.808;9.968;2024-03-23T07:05:42;97852.28;;;12.19;71.42
46506;BME280;32220;49.808;9.968;2024-03-23T07:08:09;97866.84;;;12.04;70.89
46506;BME280;32220;49.808;9.968;2024-03-23T07:10:39;97878.84;;;11.98;70.42
46506;BME280;32220;49.808;9.968;2024-03-23T07:13:05;97901.09;;;11.86;70.11
46506;BME280;32220;49.808;9.968;2024-03-23T07:15:34;97911.34;;;11.79;70.68
46506;BME280;32220;49.808;9.968;2024-03-23T07:18:01;97917.63;;;11.67;70.81
46506;BME280;32220;49.808;9.968;2024-03-23T07:20:29;97925.94;;;11.63;70.18
46506;BME280;32220;49.808;9.968;2024-03-23T07:22:57;97934.19;;;11.48;69.67
46506;BME280;32220;49.808;9.968;2024-03-23T07:25:24;97937.94;;;11.46;69.93
46506;BME280;32220;49.808;9.968;2024-03-23T07:27:53;97922.06;;;11.35;69.82
46506;BME280;32220;49.808;9.968;2024-03-23T07:30:20;97969.38;;;11.39;69.74
46506;BME280;32220;49.808;9.968;2024-03-23T07:32:48;97972.88;;;11.40;69.78
46506;BME280;32220;49.808;9.968;2024-03-23T07:35:15;97989.63;;;11.40;70.29
46506;BME280;32220;49.808;9.968;2024-03-23T07:37:42;97986.25;;;11.38;70.39
46506;BME280;32220;49.808;9.968;2024-03-23T07:40:10;97998.09;;;11.34;69.51
46506;BME280;32220;49.808;9.968;2024-03-23T07:42:37;98010.59;;;11.21;68.72
46506;BME280;32220;49.808;9.968;2024-03-23T07:45:06;98023.00;;;11.09;68.83
46506;BME280;32220;49.808;9.968;2024-03-23T07:47:32;98044.94;;;11.23;68.47
46506;BME280;32220;49.808;9.968;2024-03-23T07:50:01;98038.19;;;11.41;68.19
46506;BME280;32220;49.808;9.968;2024-03-23T07:52:28;98053.59;;;11.69;67.61
46506;BME280;32220;49.808;9.968;2024-03-23T07:54:56;98061.09;;;11.86;66.45
46506;BME280;32220;49.808;9.968;2024-03-23T07:57:22;98073.38;;;11.65;64.62
46506;BME280;32220;49.808;9.968;2024-03-23T07:59:49;98096.16;;;11.57;64.47
46506;BME280;32220;49.808;9.968;2024-03-23T08:02:16;98108.81;;;11.42;64.26
46506;BME280;32220;49.808;9.968;2024-03-23T08:04:43;98119.63;;;11.28;64.10
46506;BME280;32220;49.808;9.968;2024-03-23T08:07:12;98114.31;;;11.28;64.08
46506;BME280;32220;49.808;9.968;2024-03-23T08:09:38;98076.25;;;11.29;64.56
46506;BME280;32220;49.808;9.968;2024-03-23T08:12:06;98124.25;;;11.70;63.66
46506;BME280;32220;49.808;9.968;2024-03-23T08:14:33;98112.19;;;11.44;62.44
46506;BME280;32220;49.808;9.968;2024-03-23T08:17:00;98162.81;;;11.63;62.85
46506;BME280;32220;49.808;9.968;2024-03-23T08:19:28;98173.31;;;11.65;63.05
46506;BME280;32220;49.808;9.968;2024-03-23T08:21:54;98181.13;;;11.66;63.11
46506;BME280;32220;49.808;9.968;2024-03-23T08:24:23;98169.69;;;11.66;62.01
46506;BME280;32220;49.808;9.968;2024-03-23T08:26:49;98177.88;;;11.63;61.98
46506;BME280;32220;49.808;9.968;2024-03-23T08:29:17;98194.69;;;11.74;62.00
46506;BME280;32220;49.808;9.968;2024-03-23T08:31:43;98206.75;;;11.78;61.35
46506;BME280;32220;49.808;9.968;2024-03-23T08:34:10;98210.34;;;11.77;61.14
46506;BME280;32220;49.808;9.968;2024-03-23T08:36:37;98224.59;;;11.76;61.12
46506;BME280;32220;49.808;9.968;2024-03-23T08:39:05;98224.66;;;11.75;61.10
46506;BME280;32220;49.808;9.968;2024-03-23T08:41:33;98239.72;;;11.63;60.64
46506;BME280;32220;49.808;9.968;2024-03-23T08:44:01;98236.84;;;11.66;61.63
46506;BME280;32220;49.808;9.968;2024-03-23T08:46:27;98237.34;;;11.71;61.20
46506;BME280;32220;49.808;9.968;2024-03-23T08:48:54;98233.88;;;11.82;61.13
46506;BME280;32220;49.808;9.968;2024-03-23T08:51:21;98248.13;;;11.81;60.94
46506;BME280;32220;49.808;9.968;2024-03-23T08:53:48;98262.34;;;11.80;60.54
46506;BME280;32220;49.808;9.968;2024-03-23T08:56:15;98250.31;;;11.63;60.14
46506;BME280;32220;49.808;9.968;2024-03-23T08:58:44;98265.38;;;11.63;60.02
46506;BME280;32220;49.808;9.968;2024-03-23T09:01:12;98264.28;;;11.54;60.15
46506;BME280;32220;49.808;9.968;2024-03-23T09:03:40;98265.25;;;11.53;59.22
46506;BME280;32220;49.808;9.968;2024-03-23T09:06:07;98289.31;;;11.74;58.11
46506;BME280;32220;49.808;9.968;2024-03-23T09:08:35;98291.53;;;11.91;58.71
46506;BME280;32220;49.808;9.968;2024-03-23T09:11:06;98290.50;;;12.16;57.25
46506;BME280;32220;49.808;9.968;2024-03-23T09:13:34;98329.34;;;12.50;55.83
46506;BME280;32220;49.808;9.968;2024-03-23T09:16:04;98333.94;;;12.82;55.83
46506;BME280;32220;49.808;9.968;2024-03-23T09:18:32;98348.81;;;12.84;55.03
46506;BME280;32220;49.808;9.968;2024-03-23T09:20:59;98343.97;;;12.67;54.20
46506;BME280;32220;49.808;9.968;2024-03-23T09:23:26;98342.41;;;12.53;54.54
46506;BME280;32220;49.808;9.968;2024-03-23T09:25:53;98345.06;;;12.65;54.80
46506;BME280;32220;49.808;9.968;2024-03-23T09:28:20;98350.63;;;12.73;55.09
46506;BME280;32220;49.808;9.968;2024-03-23T09:30:47;98358.09;;;12.79;54.88
46506;BME280;32220;49.808;9.968;2024-03-23T09:33:15;98369.34;;;12.82;54.91
46506;BME280;32220;49.808;9.968;2024-03-23T09:35:43;98338.03;;;12.86;54.13
46506;BME280;32220;49.808;9.968;2024-03-23T09:38:11;98366.00;;;13.98;52.91
46506;BME280;32220;49.808;9.968;2024-03-23T09:40:40;98385.31;;;14.32;50.12
46506;BME280;32220;49.808;9.968;2024-03-23T09:43:09;98387.00;;;14.33;49.54
46506;BME280;32220;49.808;9.968;2024-03-23T09:45:38;98394.84;;;14.14;49.30
46506;BME280;32220;49.808;9.968;2024-03-23T09:48:08;98381.66;;;14.13;50.66
46506;BME280;32220;49.808;9.968;2024-03-23T09:50:37;98393.91;;;15.37;48.30
46506;BME280;32220;49.808;9.968;2024-03-23T09:53:06;98397.91;;;16.20;46.28
46506;BME280;32220;49.808;9.968;2024-03-23T09:55:33;98398.13;;;16.74;44.97
46506;BME280;32220;49.808;9.968;2024-03-23T09:58:01;98408.06;;;16.92;43.92
46506;BME280;32220;49.808;9.968;2024-03-23T10:00:28;98407.66;;;16.86;43.17
46506;BME280;32220;49.808;9.968;2024-03-23T10:02:55;98407.28;;;16.52;42.93
46506;BME280;32220;49.808;9.968;2024-03-23T10:05:22;98421.81;;;16.40;43.02
46506;BME280;32220;49.808;9.968;2024-03-23T10:07:52;98420.13;;;16.30;43.40
46506;BME280;32220;49.808;9.968;2024-03-23T10:10:18;98432.78;;;16.08;43.00
46506;BME280;32220;49.808;9.968;2024-03-23T10:12:48;98428.56;;;16.15;43.37
46506;BME280;32220;49.808;9.968;2024-03-23T10:15:21;98422.97;;;16.19;43.77
46506;BME280;32220;49.808;9.968;2024-03-23T10:17:49;98418.44;;;16.29;43.52
46506;BME280;32220;49.808;9.968;2024-03-23T10:20:19;98429.97;;;16.00;41.96
46506;BME280;32220;49.808;9.968;2024-03-23T10:22:48;98449.47;;;17.79;40.38
46506;BME280;32220;49.808;9.968;2024-03-23T10:25:17;98481.50;;;18.52;37.90
46506;BME280;32220;49.808;9.968;2024-03-23T10:27:58;98463.84;;;19.95;36.58
46506;BME280;32220;49.808;9.968;2024-03-23T10:30:24;98505.00;;;22.05;34.31
46506;BME280;32220;49.808;9.968;2024-03-23T10:33:06;98503.06;;;25.35;30.85
46506;BME280;32220;49.808;9.968;2024-03-23T10:35:33;98519.03;;;26.34;28.96
46506;BME280;32220;49.808;9.968;2024-03-23T10:38:02;98511.44;;;27.23;27.89
46506;BME280;32220;49.808;9.968;2024-03-23T10:40:34;98504.59;;;27.98;26.64
46506;BME280;32220;49.808;9.968;2024-03-23T10:43:03;98512.22;;;26.58;27.37
46506;BME280;32220;49.808;9.968;2024-03-23T10:45:30;98505.63;;;26.26;27.77
46506;BME280;32220;49.808;9.968;2024-03-23T10:47:58;98492.84;;;24.82;28.33
46506;BME280;32220;49.808;9.968;2024-03-23T10:50:24;98491.19;;;23.43;29.18
46506;BME280;32220;49.808;9.968;2024-03-23T10:52:53;98488.28;;;23.15;28.89
46506;BME280;32220;49.808;9.968;2024-03-23T10:55:22;98485.00;;;24.44;27.80
46506;BME280;32220;49.808;9.968;2024-03-23T10:57:54;98479.00;;;23.33;28.71
46506;BME280;32220;49.808;9.968;2024-03-23T11:00:20;98473.06;;;22.39;29.29
46506;BME280;32220;49.808;9.968;2024-03-23T11:02:49;98483.66;;;22.18;29.63
46506;BME280;32220;49.808;9.968;2024-03-23T11:05:28;98483.09;;;22.31;29.35
46506;BME280;32220;49.808;9.968;2024-03-23T11:07:56;98477.47;;;21.31;29.40
46506;BME280;32220;49.808;9.968;2024-03-23T11:10:25;98465.50;;;21.42;30.71
46506;BME280;32220;49.808;9.968;2024-03-23T11:12:54;98474.22;;;23.05;29.75
46506;BME280;32220;49.808;9.968;2024-03-23T11:15:21;98487.63;;;22.30;27.93
46506;BME280;32220;49.808;9.968;2024-03-23T11:18:13;98468.75;;;21.21;29.27
46506;BME280;32220;49.808;9.968;2024-03-23T11:20:46;98463.63;;;20.63;30.29
46506;BME280;32220;49.808;9.968;2024-03-23T11:23:26;98461.03;;;20.13;31.10
46506;BME280;32220;49.808;9.968;2024-03-23T11:25:53;98442.94;;;19.64;32.07
46506;BME280;32220;49.808;9.968;2024-03-23T11:28:22;98439.09;;;19.41;32.11
46506;BME280;32220;49.808;9.968;2024-03-23T11:30:49;98446.81;;;19.36;32.97
46506;BME280;32220;49.808;9.968;2024-03-23T11:33:17;98446.16;;;19.42;32.65
46506;BME280;32220;49.808;9.968;2024-03-23T11:35:43;98442.56;;;20.26;32.81
46506;BME280;32220;49.808;9.968;2024-03-23T11:38:12;98443.69;;;21.21;31.03
46506;BME280;32220;49.808;9.968;2024-03-23T11:40:40;98451.28;;;20.93;30.17
46506;BME280;32220;49.808;9.968;2024-03-23T11:43:09;98448.97;;;20.73;29.37
46506;BME280;32220;49.808;9.968;2024-03-23T11:45:39;98456.38;;;21.43;29.62
46506;BME280;32220;49.808;9.968;2024-03-23T11:48:09;98437.97;;;23.14;29.58
46506;BME280;32220;49.808;9.968;2024-03-23T11:50:37;98478.28;;;25.73;24.90
46506;BME280;32220;49.808;9.968;2024-03-23T11:53:16;98479.81;;;28.82;22.93
46506;BME280;32220;49.808;9.968;2024-03-23T11:55:47;98486.38;;;31.05;20.19
46506;BME280;32220;49.808;9.968;2024-03-23T11:58:16;98482.00;;;32.83;18.40
46506;BME280;32220;49.808;9.968;2024-03-23T12:00:49;98479.88;;;33.96;17.57
46506;BME280;32220;49.808;9.968;2024-03-23T12:03:17;98463.75;;;35.07;18.44
46506;BME280;32220;49.808;9.968;2024-03-23T12:05:48;98467.41;;;36.07;16.18
46506;BME280;32220;49.808;9.968;2024-03-23T12:08:18;98473.63;;;36.44;16.04
46506;BME280;32220;49.808;9.968;2024-03-23T12:10:46;98472.19;;;34.95;15.61
46506;BME280;32220;49.808;9.968;2024-03-23T12:13:20;98444.00;;;32.30;16.98
46506;BME280;32220;49.808;9.968;2024-03-23T12:15:49;98438.84;;;29.57;18.59
46506;BME280;32220;49.808;9.968;2024-03-23T12:18:18;98437.47;;;28.23;19.71
46506;BME280;32220;49.808;9.968;2024-03-23T12:20:49;98415.88;;;27.13;21.04
46506;BME280;32220;49.808;9.968;2024-03-23T12:23:17;98422.59;;;25.77;22.06
46506;BME280;32220;49.808;9.968;2024-03-23T12:25:44;98412.72;;;24.66;23.33
46506;BME280;32220;49.808;9.968;2024-03-23T12:28:11;98414.94;;;23.62;23.68
46506;BME280;32220;49.808;9.968;2024-03-23T12:30:39;98412.84;;;22.62;25.13
46506;BME280;32220;49.808;9.968;2024-03-23T12:33:08;98408.97;;;21.65;26.06
46506;BME280;32220;49.808;9.968;2024-03-23T12:35:35;98404.06;;;20.66;26.88
46506;BME280;32220;49.808;9.968;2024-03-23T12:38:02;98397.66;;;19.78;28.54
46506;BME280;32220;49.808;9.968;2024-03-23T12:40:29;98390.69;;;18.83;31.71
46506;BME280;32220;49.808;9.968;2024-03-23T12:42:56;98367.19;;;17.72;35.51
46506;BME280;32220;49.808;9.968;2024-03-23T12:45:23;98373.28;;;16.92;37.45
46506;BME280;32220;49.808;9.968;2024-03-23T12:47:50;98356.72;;;16.12;40.47
46506;BME280;32220;49.808;9.968;2024-03-23T12:50:20;98357.47;;;15.57;42.32
46506;BME280;32220;49.808;9.968;2024-03-23T12:52:48;98349.03;;;15.02;44.29
46506;BME280;32220;49.808;9.968;2024-03-23T12:55:14;98353.06;;;14.96;45.44
46506;BME280;32220;49.808;9.968;2024-03-23T12:57:42;98343.16;;;16.90;44.36
46506;BME280;32220;49.808;9.968;2024-03-23T13:00:09;98370.78;;;19.78;39.96
46506;BME280;32220;49.808;9.968;2024-03-23T13:02:37;98384.25;;;22.52;36.68
46506;BME280;32220;49.808;9.968;2024-03-23T13:05:05;98354.13;;;24.30;32.94
46506;BME280;32220;49.808;9.968;2024-03-23T13:07:35;98436.16;;;26.31;29.24
46506;BME280;32220;49.808;9.968;2024-03-23T13:10:04;98440.31;;;27.26;26.87
46506;BME280;32220;49.808;9.968;2024-03-23T13:12:32;98462.84;;;27.46;25.01
46506;BME280;32220;49.808;9.968;2024-03-23T13:14:59;98430.97;;;28.24;25.92
46506;BME280;32220;49.808;9.968;2024-03-23T13:17:26;98452.00;;;28.74;23.65
46506;BME280;32220;49.808;9.968;2024-03-23T13:19:54;98406.00;;;29.27;24.01
46506;BME280;32220;49.808;9.968;2024-03-23T13:22:22;98447.84;;;29.94;23.19
46506;BME280;32220;49.808;9.968;2024-03-23T13:24:50;98448.88;;;29.99;22.02
46506;BME280;32220;49.808;9.968;2024-03-23T13:27:17;98445.63;;;30.21;22.90
46506;BME280;32220;49.808;9.968;2024-03-23T13:29:45;98442.97;;;30.86;21.77
46506;BME280;32220;49.808;9.968;2024-03-23T13:32:13;98445.63;;;31.39;20.82
46506;BME280;32220;49.808;9.968;2024-03-23T13:34:40;98441.00;;;31.39;21.78
46506;BME280;32220;49.808;9.968;2024-03-23T13:37:07;98459.53;;;30.91;19.87
46506;BME280;32220;49.808;9.968;2024-03-23T13:39:35;98404.44;;;28.94;20.61
46506;BME280;32220;49.808;9.968;2024-03-23T13:42:04;98454.06;;;28.47;21.39
46506;BME280;32220;49.808;9.968;2024-03-23T13:44:32;98433.03;;;28.29;21.26
46506;BME280;32220;49.808;9.968;2024-03-23T13:46:58;98442.06;;;28.30;21.24
46506;BME280;32220;49.808;9.968;2024-03-23T13:49:27;98434.75;;;28.55;21.54
46506;BME280;32220;49.808;9.968;2024-03-23T13:51:54;98427.69;;;28.72;20.60
46506;BME280;32220;49.808;9.968;2024-03-23T13:54:22;98420.66;;;28.89;21.00
46506;BME280;32220;49.808;9.968;2024-03-23T13:56:48;98428.28;;;28.74;20.67